createdAt,value
2019-03-26T00:01:47.645Z,7.42
2019-03-26T00:04:19.015Z,7.42
2019-03-26T00:06:50.296Z,7.45
2019-03-26T00:09:21.671Z,7.40
2019-03-26T00:11:53.433Z,7.37
2019-03-26T00:14:25.136Z,7.34
2019-03-26T00:16:56.480Z,7.44
2019-03-26T00:19:28.143Z,7.42
2019-03-26T00:21:59.424Z,7.39
2019-03-26T00:24:31.108Z,7.34
2019-03-26T00:27:02.457Z,7.38
2019-03-26T00:29:34.004Z,7.49
2019-03-26T00:32:05.537Z,7.43
2019-03-26T00:34:37.558Z,7.42
2019-03-26T00:37:08.861Z,7.42
2019-03-26T00:39:40.503Z,7.42
2019-03-26T00:42:12.058Z,7.39
2019-03-26T00:44:43.453Z,7.37
2019-03-26T00:47:15.072Z,7.35
2019-03-26T00:49:46.357Z,7.37
2019-03-26T00:52:17.676Z,7.37
2019-03-26T00:54:49.006Z,7.34
2019-03-26T00:57:20.218Z,7.39
2019-03-26T00:59:52.837Z,7.33
2019-03-26T01:02:24.330Z,7.34
2019-03-26T01:04:55.512Z,7.38
2019-03-26T01:07:26.888Z,7.32
2019-03-26T01:09:58.186Z,7.30
2019-03-26T01:12:31.196Z,7.31
2019-03-26T01:15:02.869Z,7.29
2019-03-26T01:17:34.247Z,7.27
2019-03-26T01:20:07.105Z,7.27
2019-03-26T01:22:38.435Z,7.27
2019-03-26T01:25:10.034Z,7.25
2019-03-26T01:27:41.682Z,7.23
2019-03-26T01:30:13.421Z,7.23
2019-03-26T01:32:44.956Z,7.15
2019-03-26T01:35:16.254Z,7.23
2019-03-26T01:37:47.565Z,7.20
2019-03-26T01:40:18.866Z,7.30
2019-03-26T01:42:50.229Z,7.22
2019-03-26T01:45:21.560Z,7.22
2019-03-26T01:47:52.871Z,7.20
2019-03-26T01:50:24.160Z,7.20
2019-03-26T01:52:55.480Z,7.26
2019-03-26T01:55:26.851Z,7.22
2019-03-26T01:57:58.340Z,7.28
2019-03-26T02:00:29.678Z,7.23
2019-03-26T02:03:00.959Z,7.28
2019-03-26T02:05:32.332Z,7.27
2019-03-26T02:08:03.984Z,7.22
2019-03-26T02:10:35.286Z,7.25
2019-03-26T02:13:06.619Z,7.23
2019-03-26T02:15:37.980Z,7.22
2019-03-26T02:18:09.328Z,7.23
2019-03-26T02:20:40.973Z,7.22
2019-03-26T02:23:12.550Z,7.17
2019-03-26T02:25:43.862Z,7.12
2019-03-26T02:28:15.199Z,7.15
2019-03-26T02:30:46.476Z,7.12
2019-03-26T02:33:18.095Z,7.12
2019-03-26T02:35:49.441Z,7.17
2019-03-26T02:38:21.196Z,7.11
2019-03-26T02:40:52.479Z,7.13
2019-03-26T02:43:23.915Z,7.12
2019-03-26T02:45:55.258Z,7.08
2019-03-26T02:48:26.566Z,7.10
2019-03-26T02:50:57.983Z,7.05
2019-03-26T02:53:29.259Z,7.06
2019-03-26T02:56:00.533Z,7.03
2019-03-26T02:58:31.889Z,7.03
2019-03-26T03:01:03.346Z,7.00
2019-03-26T03:03:34.515Z,7.03
2019-03-26T03:06:05.833Z,7.04
2019-03-26T03:08:37.149Z,7.10
2019-03-26T03:11:08.533Z,7.11
2019-03-26T03:13:39.865Z,7.07
2019-03-26T03:16:11.137Z,7.07
2019-03-26T03:18:42.690Z,7.06
2019-03-26T03:21:14.046Z,7.11
2019-03-26T03:23:46.781Z,7.04
2019-03-26T03:26:18.034Z,7.06
2019-03-26T03:28:49.479Z,7.07
2019-03-26T03:31:21.305Z,7.06
2019-03-26T03:33:52.619Z,7.02
2019-03-26T03:36:25.604Z,7.05
2019-03-26T03:38:56.909Z,7.02
2019-03-26T03:41:28.324Z,6.99
2019-03-26T03:43:59.681Z,7.03
2019-03-26T03:46:31.711Z,7.02
2019-03-26T03:49:03.864Z,7.00
2019-03-26T03:51:39.330Z,6.98
2019-03-26T03:54:12.620Z,6.97
2019-03-26T03:56:46.587Z,7.03
2019-03-26T03:59:18.519Z,7.02
2019-03-26T04:01:49.812Z,6.99
2019-03-26T04:04:21.149Z,7.04
2019-03-26T04:06:52.476Z,7.00
2019-03-26T04:09:23.793Z,7.02
2019-03-26T04:11:55.135Z,7.00
2019-03-26T04:14:26.476Z,7.04
2019-03-26T04:16:57.758Z,7.04
2019-03-26T04:19:29.393Z,7.06
2019-03-26T04:22:00.755Z,7.07
2019-03-26T04:24:32.051Z,7.08
2019-03-26T04:27:03.371Z,7.02
2019-03-26T04:29:34.715Z,7.01
2019-03-26T04:32:06.090Z,7.04
2019-03-26T04:34:37.372Z,7.07
2019-03-26T04:37:08.692Z,7.07
2019-03-26T04:39:40.052Z,7.07
2019-03-26T04:42:11.389Z,7.12
2019-03-26T04:44:43.040Z,7.09
2019-03-26T04:47:14.331Z,7.08
2019-03-26T04:49:45.650Z,7.11
2019-03-26T04:52:17.781Z,7.10
2019-03-26T04:54:49.060Z,7.11
2019-03-26T04:57:20.431Z,7.06
2019-03-26T04:59:52.040Z,7.12
2019-03-26T05:02:23.342Z,7.07
2019-03-26T05:04:54.703Z,7.09
2019-03-26T05:07:26.297Z,7.00
2019-03-26T05:09:58.085Z,6.99
2019-03-26T05:12:29.372Z,7.02
2019-03-26T05:15:01.012Z,6.99
2019-03-26T05:17:32.599Z,6.99
2019-03-26T05:20:04.393Z,7.02
2019-03-26T05:22:35.874Z,7.01
2019-03-26T05:25:09.137Z,7.00
2019-03-26T05:27:45.654Z,6.95
2019-03-26T05:30:14.384Z,7.00
2019-03-26T05:32:45.933Z,7.01
2019-03-26T05:35:17.314Z,6.98
2019-03-26T05:37:49.049Z,7.07
2019-03-26T05:40:20.657Z,7.07
2019-03-26T05:42:51.940Z,7.04
2019-03-26T05:45:23.283Z,7.04
2019-03-26T05:47:54.552Z,7.02
2019-03-26T05:50:26.172Z,6.97
2019-03-26T05:52:57.546Z,7.00
2019-03-26T05:55:29.075Z,7.07
2019-03-26T05:58:00.461Z,7.00
2019-03-26T06:00:31.856Z,6.98
2019-03-26T06:03:03.400Z,7.01
2019-03-26T06:05:35.814Z,7.05
2019-03-26T06:08:07.121Z,7.01
2019-03-26T06:10:38.418Z,7.04
2019-03-26T06:13:09.715Z,7.05
2019-03-26T06:15:41.134Z,7.10
2019-03-26T06:18:12.751Z,7.12
2019-03-26T06:20:44.307Z,7.16
2019-03-26T06:23:15.646Z,7.16
2019-03-26T06:25:46.912Z,7.18
2019-03-26T06:28:18.448Z,7.23
2019-03-26T06:30:51.009Z,7.28
2019-03-26T06:33:22.316Z,7.36
2019-03-26T06:35:53.898Z,7.44
2019-03-26T06:38:25.524Z,7.51
2019-03-26T06:40:56.869Z,7.59
2019-03-26T06:43:28.215Z,7.61
2019-03-26T06:45:59.553Z,7.58
2019-03-26T06:48:31.912Z,7.60
2019-03-26T06:51:03.317Z,7.60
2019-03-26T06:53:34.736Z,7.62
2019-03-26T06:56:06.073Z,7.69
2019-03-26T06:58:37.800Z,7.68
2019-03-26T07:01:09.461Z,7.68
2019-03-26T07:03:41.253Z,7.66
2019-03-26T07:06:12.569Z,7.61
2019-03-26T07:08:44.162Z,7.70
2019-03-26T07:11:15.660Z,7.68
2019-03-26T07:13:46.952Z,7.69
2019-03-26T07:16:18.404Z,7.69
2019-03-26T07:18:49.689Z,7.70
2019-03-26T07:21:21.301Z,7.67
2019-03-26T07:23:52.911Z,7.67
2019-03-26T07:26:25.029Z,7.72
2019-03-26T07:28:56.918Z,7.73
2019-03-26T07:31:28.664Z,7.74
2019-03-26T07:33:59.954Z,7.73
2019-03-26T07:36:31.227Z,7.78
2019-03-26T07:39:02.715Z,7.84
2019-03-26T07:41:34.109Z,7.96
2019-03-26T07:44:05.408Z,8.08
2019-03-26T07:46:36.748Z,8.11
2019-03-26T07:49:08.288Z,8.27
2019-03-26T07:51:40.038Z,8.37
2019-03-26T07:54:11.451Z,8.46
2019-03-26T07:56:42.838Z,8.53
2019-03-26T07:59:15.449Z,8.72
2019-03-26T08:01:47.767Z,8.84
2019-03-26T08:04:19.095Z,8.88
2019-03-26T08:06:50.815Z,9.00
2019-03-26T08:09:22.395Z,9.06
2019-03-26T08:11:54.247Z,9.00
2019-03-26T08:14:25.617Z,9.05
2019-03-26T08:16:57.052Z,9.13
2019-03-26T08:19:28.636Z,9.18
2019-03-26T08:21:59.992Z,9.10
2019-03-26T08:24:31.428Z,9.07
2019-03-26T08:27:02.760Z,9.08
2019-03-26T08:29:34.093Z,8.95
2019-03-26T08:32:05.823Z,9.08
2019-03-26T08:34:37.188Z,9.20
2019-03-26T08:37:08.575Z,9.35
2019-03-26T08:39:40.102Z,9.39
2019-03-26T08:42:11.340Z,9.61
2019-03-26T08:44:42.816Z,9.56
2019-03-26T08:47:14.237Z,9.52
2019-03-26T08:49:45.567Z,9.69
2019-03-26T08:52:16.865Z,10.08
2019-03-26T08:54:48.602Z,10.26
2019-03-26T08:57:22.274Z,10.46
2019-03-26T08:59:54.771Z,10.54
2019-03-26T09:02:26.375Z,10.45
2019-03-26T09:04:57.718Z,10.25
2019-03-26T09:07:28.998Z,10.24
2019-03-26T09:10:00.914Z,10.16
2019-03-26T09:12:33.159Z,10.01
2019-03-26T09:15:05.565Z,10.00
2019-03-26T09:17:36.908Z,9.99
2019-03-26T09:20:11.854Z,10.20
2019-03-26T09:22:43.501Z,10.21
2019-03-26T09:25:15.759Z,10.22
2019-03-26T09:27:47.054Z,11.35
2019-03-26T09:30:18.806Z,12.49
2019-03-26T09:32:50.141Z,12.92
2019-03-26T09:35:21.537Z,12.77
2019-03-26T09:37:52.970Z,12.61
2019-03-26T09:40:24.331Z,12.53
2019-03-26T09:42:55.659Z,12.25
2019-03-26T09:45:26.983Z,11.96
2019-03-26T09:47:58.555Z,11.68
2019-03-26T09:50:37.338Z,11.34
2019-03-26T09:53:08.662Z,11.27
2019-03-26T09:55:40.040Z,11.10
2019-03-26T09:58:11.318Z,10.97
2019-03-26T10:00:42.773Z,10.49
2019-03-26T10:03:14.250Z,10.46
2019-03-26T10:05:45.515Z,10.21
2019-03-26T10:08:17.999Z,10.17
2019-03-26T10:10:49.712Z,10.38
2019-03-26T10:13:21.035Z,10.56
2019-03-26T10:15:52.324Z,10.69
2019-03-26T10:18:23.627Z,10.73
2019-03-26T10:20:54.966Z,10.57
2019-03-26T10:23:26.641Z,10.54
2019-03-26T10:25:58.105Z,10.46
2019-03-26T10:28:29.427Z,10.43
2019-03-26T10:31:00.961Z,10.56
2019-03-26T10:33:32.281Z,10.53
2019-03-26T10:36:03.649Z,10.55
2019-03-26T10:38:34.970Z,10.76
2019-03-26T10:41:06.346Z,10.88
2019-03-26T10:43:37.671Z,10.88
2019-03-26T10:46:09.003Z,11.17
2019-03-26T10:48:40.684Z,11.38
2019-03-26T10:51:12.294Z,11.67
2019-03-26T10:53:43.584Z,11.86
2019-03-26T10:56:15.176Z,12.06
2019-03-26T10:58:46.793Z,12.25
2019-03-26T11:01:18.075Z,12.47
2019-03-26T11:03:49.399Z,12.40
2019-03-26T11:06:20.994Z,12.17
2019-03-26T11:08:52.549Z,12.25
2019-03-26T11:11:23.897Z,12.18
2019-03-26T11:13:58.460Z,12.52
2019-03-26T11:16:28.704Z,12.72
2019-03-26T11:19:00.364Z,12.46
2019-03-26T11:21:31.695Z,12.62
2019-03-26T11:24:03.306Z,12.80
2019-03-26T11:26:34.891Z,12.72
2019-03-26T11:29:06.167Z,13.45
2019-03-26T11:31:37.727Z,13.78
2019-03-26T11:34:09.101Z,14.27
2019-03-26T11:36:40.671Z,14.74
2019-03-26T11:39:12.017Z,14.94
2019-03-26T11:41:43.338Z,14.75
2019-03-26T11:44:16.022Z,15.15
2019-03-26T11:46:47.325Z,15.48
2019-03-26T11:49:18.700Z,15.24
2019-03-26T11:51:50.301Z,15.12
2019-03-26T11:54:21.966Z,15.39
2019-03-26T11:56:53.640Z,15.24
2019-03-26T11:59:25.065Z,15.01
2019-03-26T12:01:56.723Z,14.38
2019-03-26T12:04:28.079Z,13.86
2019-03-26T12:06:59.449Z,13.38
2019-03-26T12:09:30.876Z,12.98
2019-03-26T12:12:02.348Z,12.40
2019-03-26T12:14:33.994Z,12.18
2019-03-26T12:17:05.303Z,11.97
2019-03-26T12:19:36.837Z,11.81
2019-03-26T12:22:08.561Z,11.94
2019-03-26T12:24:40.722Z,12.19
2019-03-26T12:27:13.677Z,12.41
2019-03-26T12:29:45.092Z,12.32
2019-03-26T12:32:16.502Z,12.51
2019-03-26T12:34:47.940Z,12.58
2019-03-26T12:37:19.312Z,12.46
2019-03-26T12:39:59.257Z,12.38
2019-03-26T12:42:24.468Z,12.12
2019-03-26T12:44:55.857Z,12.11
2019-03-26T12:47:27.246Z,12.09
2019-03-26T12:49:58.699Z,12.15
2019-03-26T12:52:30.140Z,12.10
2019-03-26T12:55:01.908Z,12.19
2019-03-26T12:57:33.863Z,12.28
2019-03-26T13:00:05.587Z,12.38
2019-03-26T13:02:36.954Z,12.32
2019-03-26T13:05:09.604Z,12.15
2019-03-26T13:07:41.156Z,12.45
2019-03-26T13:10:14.483Z,12.51
2019-03-26T13:12:46.133Z,12.34
2019-03-26T13:15:17.573Z,12.23
2019-03-26T13:17:49.528Z,12.16
2019-03-26T13:20:20.993Z,11.95
2019-03-26T13:22:52.550Z,11.60
2019-03-26T13:25:23.903Z,11.58
2019-03-26T13:27:55.350Z,11.39
2019-03-26T13:30:26.667Z,11.23
2019-03-26T13:32:57.910Z,11.07
2019-03-26T13:35:29.398Z,11.27
2019-03-26T13:38:00.881Z,11.48
2019-03-26T13:40:32.303Z,11.73
2019-03-26T13:43:03.692Z,11.94
2019-03-26T13:45:35.137Z,12.08
2019-03-26T13:48:07.134Z,12.13
2019-03-26T13:50:38.612Z,12.15
2019-03-26T13:53:10.824Z,11.92
2019-03-26T13:55:42.627Z,11.73
2019-03-26T13:58:14.170Z,11.45
2019-03-26T14:00:46.432Z,11.16
2019-03-26T14:03:18.039Z,11.07
2019-03-26T14:05:49.543Z,11.05
2019-03-26T14:08:21.184Z,10.95
2019-03-26T14:10:52.653Z,11.00
2019-03-26T14:13:24.658Z,11.00
2019-03-26T14:15:56.100Z,11.10
2019-03-26T14:18:27.441Z,11.12
2019-03-26T14:20:59.304Z,11.15
2019-03-26T14:23:30.649Z,11.10
2019-03-26T14:26:01.989Z,11.11
2019-03-26T14:28:33.606Z,11.11
2019-03-26T14:31:05.096Z,11.09
2019-03-26T14:33:39.328Z,11.01
2019-03-26T14:36:10.807Z,10.95
2019-03-26T14:38:42.330Z,10.91
2019-03-26T14:41:13.683Z,10.89
2019-03-26T14:43:45.165Z,10.73
2019-03-26T14:46:16.601Z,10.69
2019-03-26T14:48:47.961Z,10.67
2019-03-26T14:51:19.277Z,10.67
2019-03-26T14:53:50.606Z,10.68
2019-03-26T14:56:21.905Z,10.56
2019-03-26T14:58:53.530Z,10.49
2019-03-26T15:01:25.000Z,10.49
2019-03-26T15:03:56.285Z,10.39
2019-03-26T15:06:27.751Z,10.45
2019-03-26T15:08:59.065Z,10.36
2019-03-26T15:11:30.358Z,10.42
2019-03-26T15:14:02.499Z,10.43
2019-03-26T15:16:33.897Z,10.42
2019-03-26T15:19:05.278Z,10.39
2019-03-26T15:21:36.681Z,10.42
2019-03-26T15:24:08.531Z,10.40
2019-03-26T15:26:40.006Z,10.38
2019-03-26T15:29:11.471Z,10.43
2019-03-26T15:31:42.895Z,10.45
2019-03-26T15:34:14.197Z,10.46
2019-03-26T15:36:45.785Z,10.64
2019-03-26T15:39:17.914Z,10.75
2019-03-26T15:41:49.439Z,10.82
2019-03-26T15:44:20.741Z,10.78
2019-03-26T15:46:52.053Z,10.81
2019-03-26T15:49:23.334Z,10.84
2019-03-26T15:51:54.728Z,10.70
2019-03-26T15:54:26.005Z,10.70
2019-03-26T15:56:57.276Z,10.82
2019-03-26T15:59:28.641Z,10.82
2019-03-26T16:02:00.156Z,10.77
2019-03-26T16:04:31.431Z,10.81
2019-03-26T16:07:03.127Z,10.81
2019-03-26T16:09:34.698Z,10.76
2019-03-26T16:12:05.941Z,10.67
2019-03-26T16:14:37.577Z,10.62
2019-03-26T16:17:08.883Z,10.61
2019-03-26T16:19:40.456Z,10.59
2019-03-26T16:22:11.838Z,10.51
2019-03-26T16:24:43.222Z,10.52
2019-03-26T16:27:14.539Z,10.44
2019-03-26T16:29:46.285Z,10.37
2019-03-26T16:32:17.587Z,10.39
2019-03-26T16:34:50.103Z,10.35
2019-03-26T16:37:21.448Z,10.34
2019-03-26T16:39:53.003Z,10.26
2019-03-26T16:42:24.283Z,10.27
2019-03-26T16:44:56.042Z,10.25
2019-03-26T16:47:27.416Z,10.27
2019-03-26T16:49:58.719Z,10.21
2019-03-26T16:52:30.369Z,10.14
2019-03-26T16:55:02.251Z,10.08
2019-03-26T16:57:33.966Z,10.11
2019-03-26T17:00:05.629Z,10.07
2019-03-26T17:02:37.163Z,10.04
2019-03-26T17:05:09.456Z,10.06
2019-03-26T17:07:40.801Z,10.03
2019-03-26T17:10:12.609Z,9.97
2019-03-26T17:12:43.887Z,9.89
2019-03-26T17:15:15.488Z,9.86
2019-03-26T17:17:46.754Z,9.86
2019-03-26T17:20:18.106Z,9.86
2019-03-26T17:22:49.460Z,9.84
2019-03-26T17:25:20.760Z,9.83
2019-03-26T17:27:52.087Z,9.80
2019-03-26T17:30:23.639Z,9.79
2019-03-26T17:32:55.176Z,9.80
2019-03-26T17:35:26.571Z,9.80
2019-03-26T17:38:00.047Z,9.77
2019-03-26T17:40:30.862Z,9.78
2019-03-26T17:43:02.148Z,9.72
2019-03-26T17:45:33.903Z,9.71
2019-03-26T17:48:05.472Z,9.69
2019-03-26T17:50:36.741Z,9.74
2019-03-26T17:53:08.335Z,9.71
2019-03-26T17:55:39.604Z,9.67
2019-03-26T17:58:10.884Z,9.65
2019-03-26T18:00:45.636Z,9.62
2019-03-26T18:03:26.338Z,9.64
2019-03-26T18:05:50.238Z,10.65
2019-03-26T18:08:21.563Z,10.56
2019-03-26T18:10:53.150Z,10.69
2019-03-26T18:13:24.510Z,11.25
2019-03-26T18:15:55.821Z,11.43
2019-03-26T18:18:27.392Z,11.59
2019-03-26T18:20:58.673Z,11.68
2019-03-26T18:23:31.252Z,11.61
2019-03-26T18:26:02.788Z,11.42
2019-03-26T18:28:34.005Z,11.50
2019-03-26T18:31:05.334Z,11.42
2019-03-26T18:33:36.614Z,11.48
2019-03-26T18:36:08.723Z,11.40
2019-03-26T18:38:40.286Z,11.56
2019-03-26T18:41:11.586Z,11.44
2019-03-26T18:43:43.190Z,11.60
2019-03-26T18:46:14.738Z,11.57
2019-03-26T18:48:46.058Z,11.46
2019-03-26T18:51:17.623Z,11.99
2019-03-26T18:53:49.500Z,11.25
2019-03-26T18:56:20.819Z,10.86
2019-03-26T18:58:52.164Z,10.58
2019-03-26T19:01:24.076Z,10.31
2019-03-26T19:03:55.371Z,10.22
2019-03-26T19:06:26.655Z,10.20
2019-03-26T19:08:58.032Z,9.98
2019-03-26T19:11:29.358Z,9.89
2019-03-26T19:14:00.647Z,9.80
2019-03-26T19:16:32.336Z,9.81
2019-03-26T19:19:03.893Z,9.73
2019-03-26T19:21:35.168Z,9.66
2019-03-26T19:24:06.902Z,9.63
2019-03-26T19:26:38.167Z,9.53
2019-03-26T19:29:09.618Z,9.47
2019-03-26T19:31:40.953Z,9.44
2019-03-26T19:34:12.518Z,9.45
2019-03-26T19:36:44.142Z,9.41
2019-03-26T19:39:15.494Z,9.37
2019-03-26T19:41:48.080Z,9.35
2019-03-26T19:44:19.397Z,9.37
2019-03-26T19:46:50.707Z,9.38
2019-03-26T19:49:22.039Z,9.34
2019-03-26T19:51:53.692Z,9.32
2019-03-26T19:54:25.031Z,9.26
2019-03-26T19:56:56.458Z,9.24
2019-03-26T19:59:28.116Z,9.23
2019-03-26T20:02:00.377Z,9.20
2019-03-26T20:04:31.737Z,9.23
2019-03-26T20:07:03.065Z,9.23
2019-03-26T20:09:34.966Z,9.16
2019-03-26T20:12:06.285Z,9.20
2019-03-26T20:14:37.703Z,9.16
2019-03-26T20:17:10.781Z,9.13
2019-03-26T20:19:42.257Z,9.12
2019-03-26T20:22:13.676Z,9.10
2019-03-26T20:24:45.214Z,9.09
2019-03-26T20:27:16.656Z,9.09
2019-03-26T20:29:48.251Z,9.07
2019-03-26T20:32:19.991Z,9.07
2019-03-26T20:34:51.511Z,9.05
2019-03-26T20:37:23.255Z,9.03
2019-03-26T20:39:56.014Z,9.05
2019-03-26T20:42:27.581Z,9.02
2019-03-26T20:44:59.242Z,9.06
2019-03-26T20:47:30.799Z,9.03
2019-03-26T20:50:02.786Z,9.02
2019-03-26T20:52:46.698Z,8.98
2019-03-26T20:55:22.182Z,8.97
2019-03-26T20:57:54.122Z,8.95
2019-03-26T21:00:39.674Z,8.96
2019-03-26T21:03:11.288Z,9.00
2019-03-26T21:05:42.687Z,8.97
2019-03-26T21:08:14.398Z,8.93
2019-03-26T21:10:46.241Z,8.90
2019-03-26T21:13:17.541Z,8.91
2019-03-26T21:15:57.148Z,8.89
2019-03-26T21:18:21.893Z,8.90
2019-03-26T21:20:53.338Z,8.86
2019-03-26T21:23:24.782Z,8.86
2019-03-26T21:25:56.338Z,8.83
2019-03-26T21:28:27.646Z,8.88
2019-03-26T21:30:59.174Z,8.83
2019-03-26T21:33:30.726Z,8.84
2019-03-26T21:36:02.228Z,8.83
2019-03-26T21:38:33.621Z,8.82
2019-03-26T21:41:05.298Z,8.81
2019-03-26T21:43:36.670Z,8.84
2019-03-26T21:46:08.283Z,8.81
2019-03-26T21:48:39.541Z,8.81
2019-03-26T21:51:10.834Z,8.81
2019-03-26T21:53:42.223Z,8.82
2019-03-26T21:56:13.729Z,8.82
2019-03-26T21:58:45.560Z,8.80
2019-03-26T22:01:17.285Z,8.78
2019-03-26T22:03:48.615Z,8.82
2019-03-26T22:06:20.004Z,8.79
2019-03-26T22:08:51.378Z,8.76
2019-03-26T22:11:23.517Z,8.75
2019-03-26T22:13:54.762Z,8.75
2019-03-26T22:16:26.057Z,8.73
2019-03-26T22:18:57.356Z,8.72
2019-03-26T22:21:29.511Z,8.68
2019-03-26T22:24:00.864Z,8.69
2019-03-26T22:26:32.438Z,8.68
2019-03-26T22:29:04.071Z,8.67
2019-03-26T22:31:35.405Z,8.65
2019-03-26T22:34:07.284Z,8.65
2019-03-26T22:36:39.131Z,8.65
2019-03-26T22:39:11.136Z,8.65
2019-03-26T22:41:46.591Z,8.62
2019-03-26T22:44:30.516Z,8.59
2019-03-26T22:46:51.004Z,8.61
2019-03-26T22:49:22.264Z,8.56
2019-03-26T22:51:53.523Z,8.55
2019-03-26T22:54:24.807Z,8.51
2019-03-26T22:56:56.045Z,8.54
2019-03-26T22:59:27.308Z,8.54
2019-03-26T23:01:58.644Z,8.51
2019-03-26T23:04:30.353Z,8.54
2019-03-26T23:07:01.653Z,8.52
2019-03-26T23:09:32.958Z,8.49
2019-03-26T23:12:04.248Z,8.47
2019-03-26T23:14:45.024Z,8.47
2019-03-26T23:17:09.165Z,8.51
2019-03-26T23:19:40.499Z,8.44
2019-03-26T23:22:11.842Z,8.42
2019-03-26T23:24:43.308Z,8.43
2019-03-26T23:27:14.776Z,8.38
2019-03-26T23:29:46.088Z,8.39
2019-03-26T23:32:17.562Z,8.37
2019-03-26T23:34:49.284Z,8.30
2019-03-26T23:37:20.840Z,8.30
2019-03-26T23:39:52.151Z,8.26
2019-03-26T23:42:23.392Z,8.24
2019-03-26T23:44:58.581Z,8.24
2019-03-26T23:47:27.747Z,8.26
2019-03-26T23:49:59.956Z,8.32
2019-03-26T23:52:31.792Z,8.25
2019-03-26T23:55:03.132Z,8.26
2019-03-26T23:57:37.251Z,8.22
